createdAt,value
2019-03-26T00:01:50.614Z,7.10
2019-03-26T00:04:18.802Z,7.47
2019-03-26T00:06:47.095Z,7.10
2019-03-26T00:09:15.348Z,6.50
2019-03-26T00:11:43.642Z,7.50
2019-03-26T00:14:12.465Z,7.43
2019-03-26T00:16:41.845Z,7.07
2019-03-26T00:19:10.033Z,6.97
2019-03-26T00:21:38.244Z,7.60
2019-03-26T00:24:06.502Z,7.10
2019-03-26T00:26:35.064Z,7.23
2019-03-26T00:29:03.323Z,6.73
2019-03-26T00:31:31.698Z,7.10
2019-03-26T00:34:01.454Z,6.43
2019-03-26T00:36:29.642Z,5.97
2019-03-26T00:38:57.929Z,6.33
2019-03-26T00:41:26.258Z,6.17
2019-03-26T00:43:54.544Z,6.57
2019-03-26T00:46:22.904Z,6.10
2019-03-26T00:48:51.193Z,5.83
2019-03-26T00:51:19.553Z,6.43
2019-03-26T00:53:47.769Z,5.50
2019-03-26T00:56:16.029Z,5.20
2019-03-26T00:58:44.248Z,6.10
2019-03-26T01:01:12.439Z,6.23
2019-03-26T01:03:43.578Z,6.00
2019-03-26T01:06:11.851Z,6.00
2019-03-26T01:08:40.122Z,6.10
2019-03-26T01:11:08.394Z,6.20
2019-03-26T01:13:38.592Z,5.30
2019-03-26T01:16:08.894Z,5.70
2019-03-26T01:18:37.182Z,6.03
2019-03-26T01:21:05.372Z,5.37
2019-03-26T01:23:33.661Z,5.40
2019-03-26T01:26:01.916Z,6.00
2019-03-26T01:28:30.911Z,7.10
2019-03-26T01:31:00.221Z,7.20
2019-03-26T01:33:28.513Z,4.97
2019-03-26T01:35:57.134Z,5.90
2019-03-26T01:38:25.395Z,5.67
2019-03-26T01:40:53.777Z,5.93
2019-03-26T01:43:21.970Z,6.83
2019-03-26T01:45:50.245Z,7.03
2019-03-26T01:48:18.507Z,5.53
2019-03-26T01:50:46.783Z,6.03
2019-03-26T01:53:14.971Z,5.57
2019-03-26T01:55:43.514Z,6.40
2019-03-26T01:58:12.050Z,6.20
2019-03-26T02:00:40.602Z,5.33
2019-03-26T02:03:08.931Z,6.90
2019-03-26T02:05:38.371Z,7.03
2019-03-26T02:08:06.887Z,6.43
2019-03-26T02:10:35.165Z,6.23
2019-03-26T02:13:03.430Z,6.50
2019-03-26T02:15:32.661Z,6.60
2019-03-26T02:18:00.983Z,6.23
2019-03-26T02:20:31.693Z,6.23
2019-03-26T02:23:00.132Z,6.93
2019-03-26T02:25:28.649Z,6.50
2019-03-26T02:27:57.150Z,6.67
2019-03-26T02:30:25.625Z,7.83
2019-03-26T02:32:53.878Z,7.23
2019-03-26T02:35:22.152Z,7.90
2019-03-26T02:37:51.008Z,7.90
2019-03-26T02:40:19.262Z,7.30
2019-03-26T02:42:47.551Z,8.83
2019-03-26T02:45:15.917Z,8.10
2019-03-26T02:47:44.307Z,7.80
2019-03-26T02:50:12.745Z,8.03
2019-03-26T02:52:40.961Z,7.23
2019-03-26T02:55:09.224Z,7.67
2019-03-26T02:57:37.515Z,7.67
2019-03-26T03:00:09.300Z,8.30
2019-03-26T03:02:37.581Z,8.60
2019-03-26T03:05:06.009Z,7.43
2019-03-26T03:07:36.717Z,8.00
2019-03-26T03:10:05.681Z,7.43
2019-03-26T03:12:33.966Z,7.10
2019-03-26T03:15:02.308Z,8.10
2019-03-26T03:17:30.595Z,7.17
2019-03-26T03:19:58.859Z,7.30
2019-03-26T03:22:27.394Z,7.83
2019-03-26T03:24:55.660Z,7.23
2019-03-26T03:27:23.942Z,8.13
2019-03-26T03:29:52.203Z,8.93
2019-03-26T03:32:20.491Z,7.33
2019-03-26T03:34:48.759Z,8.50
2019-03-26T03:37:18.594Z,9.40
2019-03-26T03:39:46.887Z,9.70
2019-03-26T03:42:15.394Z,8.97
2019-03-26T03:44:43.679Z,9.47
2019-03-26T03:47:13.307Z,11.50
2019-03-26T03:49:41.762Z,9.40
2019-03-26T03:52:11.819Z,9.77
2019-03-26T03:54:42.750Z,8.37
2019-03-26T03:57:14.457Z,9.80
2019-03-26T03:59:45.302Z,9.33
2019-03-26T04:02:13.831Z,9.13
2019-03-26T04:04:42.122Z,9.07
2019-03-26T04:07:10.390Z,9.97
2019-03-26T04:09:38.674Z,9.43
2019-03-26T04:12:06.936Z,9.80
2019-03-26T04:14:35.218Z,9.40
2019-03-26T04:17:03.405Z,9.50
2019-03-26T04:19:31.622Z,10.57
2019-03-26T04:21:59.810Z,10.33
2019-03-26T04:24:29.044Z,11.53
2019-03-26T04:26:57.307Z,9.00
2019-03-26T04:29:25.606Z,10.40
2019-03-26T04:31:53.876Z,10.30
2019-03-26T04:34:22.743Z,10.30
2019-03-26T04:36:51.290Z,10.67
2019-03-26T04:39:19.515Z,10.97
2019-03-26T04:41:49.418Z,10.40
2019-03-26T04:44:17.697Z,9.97
2019-03-26T04:46:45.898Z,11.30
2019-03-26T04:49:15.133Z,10.80
2019-03-26T04:51:43.566Z,9.77
2019-03-26T04:54:11.758Z,11.20
2019-03-26T04:56:40.076Z,12.13
2019-03-26T04:59:08.373Z,10.50
2019-03-26T05:01:36.642Z,11.43
2019-03-26T05:04:04.837Z,10.60
2019-03-26T05:06:38.209Z,10.20
2019-03-26T05:09:04.219Z,9.50
2019-03-26T05:11:32.478Z,10.50
2019-03-26T05:14:00.738Z,10.50
2019-03-26T05:16:28.970Z,10.33
2019-03-26T05:18:57.223Z,9.73
2019-03-26T05:21:25.745Z,11.10
2019-03-26T05:23:54.005Z,9.50
2019-03-26T05:26:22.526Z,11.30
2019-03-26T05:28:50.785Z,10.80
2019-03-26T05:31:19.086Z,11.00
2019-03-26T05:33:47.755Z,8.83
2019-03-26T05:36:15.982Z,9.40
2019-03-26T05:38:44.269Z,9.60
2019-03-26T05:41:12.557Z,9.73
2019-03-26T05:43:40.817Z,9.97
2019-03-26T05:46:09.110Z,9.60
2019-03-26T05:48:37.297Z,8.40
2019-03-26T05:51:05.685Z,8.43
2019-03-26T05:53:33.873Z,9.60
2019-03-26T05:56:02.088Z,10.00
2019-03-26T05:58:30.349Z,10.83
2019-03-26T06:00:58.818Z,11.40
2019-03-26T06:03:27.262Z,12.10
2019-03-26T06:05:55.744Z,10.80
2019-03-26T06:08:24.274Z,9.60
2019-03-26T06:10:52.491Z,10.43
2019-03-26T06:13:20.681Z,10.77
2019-03-26T06:15:49.402Z,10.27
2019-03-26T06:18:17.650Z,10.10
2019-03-26T06:20:46.434Z,10.40
2019-03-26T06:23:14.857Z,10.67
2019-03-26T06:25:43.319Z,10.67
2019-03-26T06:28:12.554Z,11.80
2019-03-26T06:30:41.249Z,10.93
2019-03-26T06:33:09.773Z,11.00
2019-03-26T06:35:38.035Z,10.70
2019-03-26T06:38:07.135Z,10.47
2019-03-26T06:40:35.418Z,10.83
2019-03-26T06:43:05.990Z,11.70
2019-03-26T06:45:35.561Z,10.50
2019-03-26T06:48:04.552Z,11.30
2019-03-26T06:50:32.923Z,11.77
2019-03-26T06:53:01.218Z,10.63
2019-03-26T06:55:29.484Z,10.40
2019-03-26T06:57:57.774Z,11.33
2019-03-26T07:00:29.771Z,10.33
2019-03-26T07:02:58.939Z,9.97
2019-03-26T07:05:27.190Z,9.83
2019-03-26T07:07:55.480Z,11.33
2019-03-26T07:10:31.747Z,9.97
2019-03-26T07:13:00.052Z,10.90
2019-03-26T07:15:28.377Z,10.40
2019-03-26T07:17:56.601Z,11.00
2019-03-26T07:20:24.905Z,10.70
2019-03-26T07:22:53.271Z,11.70
2019-03-26T07:25:21.553Z,11.13
2019-03-26T07:27:49.837Z,10.53
2019-03-26T07:30:37.408Z,11.67
2019-03-26T07:33:05.687Z,9.57
2019-03-26T07:35:34.022Z,9.73
2019-03-26T07:38:02.233Z,10.93
2019-03-26T07:40:30.423Z,13.77
2019-03-26T07:42:59.595Z,12.10
2019-03-26T07:45:27.860Z,9.20
2019-03-26T07:47:56.147Z,8.93
2019-03-26T07:50:24.405Z,8.83
2019-03-26T07:52:52.709Z,10.90
2019-03-26T07:55:20.962Z,10.00
2019-03-26T07:57:49.245Z,10.23
2019-03-26T08:00:18.968Z,11.03
2019-03-26T08:02:47.190Z,9.80
2019-03-26T08:05:15.622Z,10.33
2019-03-26T08:07:43.915Z,10.67
2019-03-26T08:10:12.255Z,10.47
2019-03-26T08:12:40.585Z,10.93
2019-03-26T08:15:08.896Z,11.17
2019-03-26T08:17:37.278Z,11.80
2019-03-26T08:20:07.101Z,11.47
2019-03-26T08:22:35.461Z,10.90
2019-03-26T08:25:05.093Z,11.60
2019-03-26T08:27:33.305Z,10.10
2019-03-26T08:30:01.577Z,10.40
2019-03-26T08:32:29.866Z,9.80
2019-03-26T08:34:58.132Z,10.53
2019-03-26T08:37:26.413Z,10.50
2019-03-26T08:39:55.938Z,9.90
2019-03-26T08:42:24.394Z,10.30
2019-03-26T08:44:52.678Z,9.33
2019-03-26T08:47:22.619Z,9.10
2019-03-26T08:49:50.906Z,10.30
2019-03-26T08:52:20.057Z,10.50
2019-03-26T08:54:48.276Z,9.97
2019-03-26T08:57:16.543Z,10.00
2019-03-26T08:59:44.854Z,10.03
2019-03-26T09:02:13.202Z,10.37
2019-03-26T09:04:42.066Z,10.10
2019-03-26T09:07:11.148Z,10.13
2019-03-26T09:09:39.964Z,10.50
2019-03-26T09:12:08.286Z,10.20
2019-03-26T09:14:36.839Z,11.10
2019-03-26T09:17:05.107Z,11.47
2019-03-26T09:19:33.413Z,12.60
2019-03-26T09:22:02.076Z,11.60
2019-03-26T09:24:30.293Z,12.60
2019-03-26T09:26:58.514Z,11.90
2019-03-26T09:29:26.782Z,11.00
2019-03-26T09:31:55.074Z,12.73
2019-03-26T09:34:23.342Z,11.33
2019-03-26T09:36:51.631Z,11.57
2019-03-26T09:39:19.898Z,10.40
2019-03-26T09:41:48.185Z,11.60
2019-03-26T09:44:16.370Z,9.67
2019-03-26T09:46:44.658Z,10.00
2019-03-26T09:49:12.843Z,9.67
2019-03-26T09:51:41.139Z,11.20
2019-03-26T09:54:09.402Z,10.50
2019-03-26T09:56:37.617Z,9.73
2019-03-26T09:59:05.810Z,10.10
2019-03-26T10:01:34.097Z,11.33
2019-03-26T10:04:03.833Z,11.90
2019-03-26T10:06:32.126Z,11.93
2019-03-26T10:09:00.390Z,10.57
2019-03-26T10:11:28.606Z,12.13
2019-03-26T10:13:59.010Z,10.07
2019-03-26T10:16:29.683Z,11.37
2019-03-26T10:18:59.507Z,9.50
2019-03-26T10:21:27.795Z,10.97
2019-03-26T10:23:56.064Z,10.87
2019-03-26T10:26:24.351Z,9.57
2019-03-26T10:28:52.614Z,10.80
2019-03-26T10:31:20.950Z,9.50
2019-03-26T10:33:52.287Z,8.03
2019-03-26T10:36:20.615Z,9.90
2019-03-26T10:38:48.898Z,9.20
2019-03-26T10:41:18.677Z,9.13
2019-03-26T10:43:47.078Z,8.53
2019-03-26T10:46:15.265Z,9.97
2019-03-26T10:48:43.553Z,8.37
2019-03-26T10:51:13.850Z,9.43
2019-03-26T10:53:43.229Z,8.83
2019-03-26T10:56:11.424Z,8.83
2019-03-26T10:58:40.046Z,7.70
2019-03-26T11:01:08.302Z,8.67
2019-03-26T11:03:36.532Z,9.80
2019-03-26T11:06:04.777Z,9.60
2019-03-26T11:08:33.329Z,9.40
2019-03-26T11:11:01.522Z,9.20
2019-03-26T11:13:29.821Z,8.53
2019-03-26T11:15:58.083Z,8.10
2019-03-26T11:18:26.382Z,6.63
2019-03-26T11:21:02.302Z,7.20
2019-03-26T11:23:24.486Z,7.43
2019-03-26T11:25:52.773Z,7.20
2019-03-26T11:28:20.964Z,14.50
2019-03-26T11:30:49.262Z,15.53
2019-03-26T11:33:17.521Z,8.00
2019-03-26T11:35:45.871Z,8.10
2019-03-26T11:38:14.213Z,7.97
2019-03-26T11:40:42.418Z,7.23
2019-03-26T11:43:10.674Z,7.17
2019-03-26T11:45:38.957Z,7.70
2019-03-26T11:48:07.149Z,7.00
2019-03-26T11:50:35.425Z,5.57
2019-03-26T11:53:03.754Z,5.97
2019-03-26T11:55:32.037Z,6.43
2019-03-26T11:58:00.296Z,7.57
2019-03-26T12:00:30.227Z,6.87
2019-03-26T12:02:58.477Z,5.97
2019-03-26T12:05:26.670Z,5.90
2019-03-26T12:07:54.957Z,6.73
2019-03-26T12:10:23.226Z,5.33
2019-03-26T12:12:51.513Z,6.07
2019-03-26T12:15:19.769Z,6.27
2019-03-26T12:17:48.054Z,6.00
2019-03-26T12:20:16.373Z,6.50
2019-03-26T12:22:44.587Z,6.70
2019-03-26T12:25:12.918Z,6.90
2019-03-26T12:27:41.125Z,6.10
2019-03-26T12:30:09.678Z,6.57
2019-03-26T12:32:40.609Z,6.50
2019-03-26T12:35:07.962Z,6.20
2019-03-26T12:37:36.247Z,4.73
2019-03-26T12:40:05.994Z,5.47
2019-03-26T12:42:34.272Z,5.20
2019-03-26T12:45:02.525Z,5.83
2019-03-26T12:47:30.738Z,5.20
2019-03-26T12:49:59.001Z,5.17
2019-03-26T12:52:27.289Z,4.27
2019-03-26T12:54:55.551Z,3.90
2019-03-26T12:57:23.834Z,4.50
2019-03-26T12:59:52.105Z,4.67
2019-03-26T13:02:20.394Z,4.07
2019-03-26T13:04:48.664Z,3.87
2019-03-26T13:07:16.949Z,3.60
2019-03-26T13:09:45.133Z,3.70
2019-03-26T13:12:13.347Z,4.00
2019-03-26T13:14:41.606Z,3.40
2019-03-26T13:17:09.962Z,3.70
2019-03-26T13:19:38.223Z,3.63
2019-03-26T13:22:06.511Z,3.80
2019-03-26T13:24:34.770Z,3.83
2019-03-26T13:27:03.044Z,3.20
2019-03-26T13:29:34.211Z,2.43
2019-03-26T13:32:02.602Z,3.50
2019-03-26T13:34:30.886Z,2.77
2019-03-26T13:36:59.173Z,3.43
2019-03-26T13:39:30.756Z,3.47
2019-03-26T13:41:59.071Z,3.30
2019-03-26T13:44:27.330Z,2.93
2019-03-26T13:46:55.609Z,2.60
2019-03-26T13:49:24.965Z,2.50
2019-03-26T13:51:53.154Z,2.70
2019-03-26T13:54:23.390Z,2.77
2019-03-26T13:56:51.654Z,2.87
2019-03-26T13:59:20.108Z,41.10
2019-03-26T14:01:48.670Z,2.70
2019-03-26T14:04:16.961Z,2.40
2019-03-26T14:06:45.153Z,3.30
2019-03-26T14:09:13.434Z,2.50
2019-03-26T14:11:41.723Z,2.43
2019-03-26T14:14:10.254Z,2.50
2019-03-26T14:16:40.154Z,2.77
2019-03-26T14:19:08.626Z,2.40
2019-03-26T14:21:38.185Z,2.50
2019-03-26T14:24:13.028Z,2.70
2019-03-26T14:26:39.550Z,2.60
2019-03-26T14:29:07.757Z,2.70
2019-03-26T14:31:35.950Z,3.77
2019-03-26T14:34:05.019Z,3.87
2019-03-26T14:36:33.286Z,3.60
2019-03-26T14:39:02.330Z,3.73
2019-03-26T14:41:31.882Z,4.33
2019-03-26T14:44:00.154Z,3.93
2019-03-26T14:46:28.439Z,4.17
2019-03-26T14:48:56.973Z,3.27
2019-03-26T14:51:25.519Z,3.27
2019-03-26T14:53:54.047Z,3.03
2019-03-26T14:56:22.698Z,3.57
2019-03-26T14:58:50.958Z,3.80
2019-03-26T15:01:19.310Z,4.40
2019-03-26T15:03:47.493Z,3.90
2019-03-26T15:06:15.782Z,3.77
2019-03-26T15:08:44.049Z,4.00
2019-03-26T15:11:12.326Z,4.53
2019-03-26T15:13:40.680Z,3.73
2019-03-26T15:16:08.978Z,3.83
2019-03-26T15:18:37.236Z,4.73
2019-03-26T15:21:05.489Z,4.60
2019-03-26T15:23:34.557Z,5.00
2019-03-26T15:26:02.882Z,5.27
2019-03-26T15:28:31.158Z,4.67
2019-03-26T15:30:59.350Z,5.60
2019-03-26T15:33:27.635Z,5.53
2019-03-26T15:35:55.914Z,5.10
2019-03-26T15:38:24.183Z,5.93
2019-03-26T15:40:52.445Z,5.40
2019-03-26T15:43:20.731Z,6.23
2019-03-26T15:45:49.185Z,5.43
2019-03-26T15:48:17.389Z,5.10
2019-03-26T15:50:46.165Z,5.73
2019-03-26T15:53:15.113Z,6.83
2019-03-26T15:55:43.454Z,6.90
2019-03-26T15:58:11.802Z,7.20
2019-03-26T16:00:40.138Z,6.73
2019-03-26T16:03:08.498Z,6.17
2019-03-26T16:05:36.766Z,6.63
2019-03-26T16:08:05.046Z,7.20
2019-03-26T16:10:33.238Z,6.67
2019-03-26T16:13:01.455Z,7.17
2019-03-26T16:15:43.238Z,6.93
2019-03-26T16:17:59.649Z,7.53
2019-03-26T16:20:27.843Z,7.40
2019-03-26T16:22:56.122Z,8.17
2019-03-26T16:25:24.382Z,9.40
2019-03-26T16:27:52.598Z,8.80
2019-03-26T16:30:20.864Z,10.00
2019-03-26T16:32:49.151Z,9.57
2019-03-26T16:35:17.414Z,12.20
2019-03-26T16:37:45.634Z,10.33
2019-03-26T16:40:13.830Z,10.70
2019-03-26T16:42:42.029Z,11.53
2019-03-26T16:45:10.490Z,11.80
2019-03-26T16:47:38.961Z,10.27
2019-03-26T16:50:07.389Z,11.50
2019-03-26T16:52:35.580Z,10.70
2019-03-26T16:55:04.642Z,12.83
2019-03-26T16:57:32.906Z,13.03
2019-03-26T17:00:01.193Z,11.53
2019-03-26T17:02:29.385Z,12.73
2019-03-26T17:04:57.669Z,11.70
2019-03-26T17:07:25.873Z,11.50
2019-03-26T17:09:54.697Z,11.50
2019-03-26T17:12:22.877Z,11.30
2019-03-26T17:14:53.501Z,11.53
2019-03-26T17:17:21.946Z,11.53
2019-03-26T17:19:50.241Z,10.47
2019-03-26T17:22:18.449Z,11.10
2019-03-26T17:24:46.738Z,10.63
2019-03-26T17:27:15.001Z,12.53
2019-03-26T17:29:43.214Z,13.03
2019-03-26T17:32:11.405Z,12.60
2019-03-26T17:34:39.689Z,12.00
2019-03-26T17:37:07.950Z,10.70
2019-03-26T17:39:36.162Z,13.40
2019-03-26T17:42:16.529Z,12.33
2019-03-26T17:44:34.346Z,9.93
2019-03-26T17:47:02.556Z,10.80
2019-03-26T17:49:30.754Z,11.40
2019-03-26T17:51:59.116Z,11.23
2019-03-26T17:54:27.382Z,9.70
2019-03-26T17:56:55.600Z,9.77
2019-03-26T17:59:23.853Z,8.90
2019-03-26T18:01:54.396Z,9.17
2019-03-26T18:04:22.145Z,10.30
2019-03-26T18:06:50.365Z,9.00
2019-03-26T18:09:18.632Z,9.40
2019-03-26T18:11:46.921Z,9.97
2019-03-26T18:14:15.180Z,10.07
2019-03-26T18:16:43.393Z,10.43
2019-03-26T18:19:11.661Z,9.93
2019-03-26T18:21:50.950Z,9.70
2019-03-26T18:24:09.804Z,10.77
2019-03-26T18:26:38.073Z,8.97
2019-03-26T18:29:06.262Z,8.73
2019-03-26T18:31:34.481Z,8.30
2019-03-26T18:34:02.741Z,8.30
2019-03-26T18:36:30.965Z,8.00
2019-03-26T18:38:59.154Z,7.80
2019-03-26T18:41:27.450Z,7.43
2019-03-26T18:43:55.645Z,7.50
2019-03-26T18:46:23.932Z,7.70
2019-03-26T18:48:52.189Z,7.60
2019-03-26T18:51:20.469Z,7.80
2019-03-26T18:53:48.659Z,7.70
2019-03-26T18:56:16.950Z,7.60
2019-03-26T18:58:45.210Z,8.97
2019-03-26T19:01:13.429Z,7.17
2019-03-26T19:03:41.693Z,7.27
2019-03-26T19:06:09.975Z,8.70
2019-03-26T19:08:39.963Z,8.37
2019-03-26T19:11:08.140Z,8.33
2019-03-26T19:13:36.430Z,7.73
2019-03-26T19:16:04.718Z,8.00
2019-03-26T19:18:32.905Z,7.40
2019-03-26T19:21:02.650Z,7.83
2019-03-26T19:23:31.081Z,8.40
2019-03-26T19:25:59.283Z,7.60
2019-03-26T19:28:27.571Z,7.43
2019-03-26T19:30:55.829Z,8.77
2019-03-26T19:33:24.048Z,8.53
2019-03-26T19:35:52.308Z,7.40
2019-03-26T19:38:20.600Z,8.70
2019-03-26T19:40:48.865Z,7.97
2019-03-26T19:43:17.083Z,7.00
2019-03-26T19:45:45.347Z,7.03
2019-03-26T19:48:13.648Z,7.47
2019-03-26T19:50:41.911Z,7.73
2019-03-26T19:53:10.195Z,7.73
2019-03-26T19:55:38.454Z,8.70
2019-03-26T19:58:06.666Z,9.20
2019-03-26T20:00:34.854Z,9.07
2019-03-26T20:03:03.146Z,9.90
2019-03-26T20:05:31.346Z,9.07
2019-03-26T20:07:59.553Z,9.77
2019-03-26T20:10:27.770Z,9.00
2019-03-26T20:12:56.134Z,9.13
2019-03-26T20:15:24.405Z,9.00
2019-03-26T20:17:54.522Z,9.27
2019-03-26T20:20:22.858Z,10.20
2019-03-26T20:22:51.142Z,10.60
2019-03-26T20:25:19.502Z,8.03
2019-03-26T20:27:47.781Z,8.47
2019-03-26T20:30:16.238Z,8.50
2019-03-26T20:32:44.526Z,8.83
2019-03-26T20:35:12.995Z,8.60
2019-03-26T20:37:41.274Z,8.60
2019-03-26T20:40:11.033Z,7.63
2019-03-26T20:42:40.123Z,8.13
2019-03-26T20:45:09.449Z,8.90
2019-03-26T20:47:38.177Z,7.80
2019-03-26T20:50:06.857Z,9.10
2019-03-26T20:52:35.139Z,9.40
2019-03-26T20:55:04.753Z,9.27
2019-03-26T20:57:32.942Z,8.67
2019-03-26T21:00:01.294Z,8.23
2019-03-26T21:02:29.558Z,8.10
2019-03-26T21:04:57.765Z,9.00
2019-03-26T21:07:25.949Z,9.77
2019-03-26T21:09:54.161Z,11.13
2019-03-26T21:12:22.358Z,8.70
2019-03-26T21:14:50.570Z,11.37
2019-03-26T21:17:18.763Z,11.83
2019-03-26T21:19:46.980Z,12.10
2019-03-26T21:22:15.174Z,10.37
2019-03-26T21:24:43.389Z,10.47
2019-03-26T21:27:11.585Z,8.60
2019-03-26T21:29:39.797Z,11.00
2019-03-26T21:32:07.985Z,9.10
2019-03-26T21:34:36.382Z,9.47
2019-03-26T21:37:04.633Z,9.33
2019-03-26T21:39:32.917Z,9.93
2019-03-26T21:42:01.109Z,10.30
2019-03-26T21:44:29.333Z,9.67
2019-03-26T21:46:57.578Z,10.60
2019-03-26T21:49:25.797Z,9.90
2019-03-26T21:51:54.082Z,9.17
2019-03-26T21:54:22.270Z,9.23
2019-03-26T21:56:50.559Z,9.23
2019-03-26T21:59:18.821Z,10.30
2019-03-26T22:01:47.051Z,10.93
2019-03-26T22:04:15.322Z,9.13
2019-03-26T22:06:43.622Z,11.33
2019-03-26T22:09:11.882Z,9.77
2019-03-26T22:11:49.809Z,10.73
2019-03-26T22:14:17.763Z,10.40
2019-03-26T22:16:39.938Z,10.50
2019-03-26T22:19:08.206Z,10.70
2019-03-26T22:21:36.489Z,9.50
2019-03-26T22:24:04.691Z,11.63
2019-03-26T22:26:32.977Z,11.13
2019-03-26T22:29:01.169Z,12.17
2019-03-26T22:31:29.460Z,10.60
2019-03-26T22:33:57.722Z,10.93
2019-03-26T22:36:25.946Z,11.20
2019-03-26T22:38:54.213Z,11.60
2019-03-26T22:41:22.444Z,11.20
2019-03-26T22:43:50.713Z,10.10
2019-03-26T22:46:18.998Z,10.77
2019-03-26T22:48:47.193Z,12.10
2019-03-26T22:51:15.481Z,10.50
2019-03-26T22:53:43.670Z,10.03
2019-03-26T22:56:11.961Z,11.60
2019-03-26T22:58:40.151Z,10.47
2019-03-26T23:01:08.674Z,9.23
2019-03-26T23:03:36.944Z,10.53
2019-03-26T23:06:05.230Z,11.27
2019-03-26T23:08:33.421Z,10.73
2019-03-26T23:11:01.646Z,11.10
2019-03-26T23:13:30.266Z,10.80
2019-03-26T23:15:58.477Z,10.63
2019-03-26T23:18:26.675Z,10.40
2019-03-26T23:20:56.754Z,10.23
2019-03-26T23:23:25.046Z,11.20
2019-03-26T23:25:53.240Z,12.17
2019-03-26T23:28:21.532Z,11.73
2019-03-26T23:30:49.866Z,11.37
2019-03-26T23:33:18.149Z,10.70
2019-03-26T23:35:46.343Z,12.80
2019-03-26T23:38:14.553Z,11.83
2019-03-26T23:40:42.742Z,11.13
2019-03-26T23:43:10.966Z,10.80
2019-03-26T23:45:39.225Z,11.23
2019-03-26T23:48:07.445Z,10.93
2019-03-26T23:50:35.719Z,11.10
2019-03-26T23:53:03.987Z,11.07
2019-03-26T23:55:32.269Z,10.70
2019-03-26T23:58:00.461Z,10.60
